GCLA/SPC METAR and TAF weather

Enter ICAO airport designator
Station Type Date Time Source
GCLA METAR 2022/06/25 23:30 UTC NOAA

GCLA 252330Z AUTO 34009KT 300V020 9999 BKN035 21/14 Q1020


Station Type Date Time Source
GCLA Decoded METAR 2022/06/25 23:30 UTC NOAA

La Palma / Aeropuerto, Spain (GCLA) 28-37N 017-45W 31M
Jun 25, 2022 - 07:30 PM EDT / 2022.06.25 2330 UTC
Wind: from the NNW (340 degrees) at 10 MPH (9 KT) (direction variable):0
Visibility: greater than 7 mile(s):0
Sky conditions: mostly cloudy
Temperature: 69 F (21 C)
Dew Point: 57 F (14 C)
Relative Humidity: 64%
Pressure (altimeter): 30.12 in. Hg (1020 hPa)
ob: GCLA 252330Z AUTO 34009KT 300V020 9999 BKN035 21/14 Q1020
cycle: 23

Station Type Date Time Source
GCLA TAF 2022/06/25 21:27 UTC NOAA

TAF GCLA 252000Z 2521/2621 33009KT 9999 SCT030 TX23/2614Z TN20/2606Z
TEMPO 2521/2523 03012KT PROB30
TEMPO 2606/2615 4500 DZ

Example: see airport list